EFHKEFTP

Guest
Details From EFHK - Helsinki Vantaa
To EFTP - Tampere Pirkkala
Flight Number -
Tags Routegen Generated
Created
Modified
Stats Distance 90 nm / 166 km
Max Altitude 200 ft / 61 m
Waypoints 14
Social Downloads 33
Likes 0
Share

Download

Looking for another format? Having issues loading an existing format? Contact us
Advertisement - Login to hide

Notes

Departing runway 4 EFHK. Arriving runway 6 EFTP.

Route

EFHK +60.38_+025.09 +60.43_+025.14 +60.49_+025.16 +60.54_+025.13 +60.59_+025.07 +60.91_+024.69 +61.31_+024.20 +61.36_+024.17 +61.41_+024.10 +61.44_+024.00 +61.46_+023.88 +61.45_+023.76 EFTP

ID Type Via Altitude (ft/m) Position (lat/lon) Dist (leg/tot) Name
O EFHK APT - 0 / 0 60.33069 / 24.97909 - / 0 nm
+60.38_+025.09 LATLON - 200 / 61 60.37954 / 25.08703 4 / 4 nm
+60.43_+025.14 LATLON - 200 / 61 60.43088 / 25.14119 3 / 7 nm
+60.49_+025.16 LATLON - 200 / 61 60.48828 / 25.15652 3 / 11 nm
+60.54_+025.13 LATLON - 200 / 61 60.54480 / 25.13103 3 / 14 nm
+60.59_+025.07 LATLON - 200 / 61 60.59360 / 25.06767 3 / 18 nm
+60.91_+024.69 LATLON - 200 / 61 60.90935 / 24.68752 22 / 40 nm
+61.31_+024.20 LATLON - 200 / 61 61.30590 / 24.20401 27 / 67 nm
+61.36_+024.17 LATLON - 200 / 61 61.36168 / 24.17168 3 / 71 nm
+61.41_+024.10 LATLON - 200 / 61 61.40879 / 24.10144 3 / 74 nm
+61.44_+024.00 LATLON - 200 / 61 61.44158 / 24.00167 3 / 78 nm
+61.46_+023.88 LATLON - 200 / 61 61.45607 / 23.88440 3 / 81 nm
+61.45_+023.76 LATLON - 200 / 61 61.45052 / 23.76381 3 / 85 nm
O EFTP APT - 0 / 0 61.41937 / 23.62721 4 / 89 nm

Altitude Profile

Advertisement - Login to hide

EFHK

Details ICAO EFHK (HEL)
Name Helsinki Vantaa Intl
Region Finland
Timezone Europe/Helsinki (UTC+2.0)
Stats Elevation 180 ft / 55 m (AMSL)
Location 60.320400° 24.952200°
Runways 3
Magnetic Variation 9.579° E

METAR

EFHK 041820Z 02011KT 9999 BKN026 M12/M15 Q1011 NOSIG

Decode

TAF

TAF EFHK 041722Z 0418/0518 02005KT 9999 FEW020= TAF EFTP 041722Z 0418/0518 05007KT CAVOK

Decode

Departure Runways

ID Width Length Bearing (true/mag) Surface Threshold Overrun Markings Lighting
04L 197 ft / 60 m 10,047 ft / 3,062 m 47.42° / 37.84° ASPHALT 0 ft / 0 m 236 ft / 72 m PREC-APP CENTERLINE EDGE THRESHOLD ALSF-II TDZ REIL-OMNI
04R 197 ft / 60 m 11,459 ft / 3,493 m 47.48° / 37.90° ASPHALT 978 ft / 298 m 210 ft / 64 m PREC-APP CENTERLINE EDGE THRESHOLD ALSF-I REIL-OMNI
15 197 ft / 60 m 9,497 ft / 2,895 m 153.07° / 143.49° ASPHALT 0 ft / 0 m 194 ft / 59 m PREC-APP CENTERLINE EDGE THRESHOLD ALSF-I TDZ REIL-OMNI
22L 197 ft / 60 m 11,459 ft / 3,493 m 227.52° / 217.95° ASPHALT 0 ft / 0 m 207 ft / 63 m PREC-APP CENTERLINE EDGE THRESHOLD ALSF-II TDZ REIL-OMNI
22R 197 ft / 60 m 10,047 ft / 3,062 m 227.46° / 217.88° ASPHALT 253 ft / 77 m 177 ft / 54 m PREC-APP CENTERLINE EDGE THRESHOLD ALSF-II TDZ REIL-OMNI
33 197 ft / 60 m 9,497 ft / 2,895 m 333.09° / 323.51° ASPHALT 0 ft / 0 m 197 ft / 60 m PREC-APP CENTERLINE EDGE THRESHOLD ALSF-I REIL-OMNI

EFTP

Details ICAO EFTP (TMP)
Name Tampere Pirkkala Airport
Region Finland
Timezone Europe/Helsinki (UTC+2.0)
Stats Elevation 391 ft / 119 m (AMSL)
Location 61.414200° 23.604400°
Runways 1
Magnetic Variation 9.408° E

METAR

EFTP 041820Z AUTO 04008KT 010V070 CAVOK M15/M17 Q1013

Decode

TAF

TAF EFTP 041722Z 0418/0518 05007KT CAVOK

Decode

Destination Runways

ID Width Length Bearing (true/mag) Surface Threshold Overrun Markings Lighting
06 148 ft / 45 m 8,865 ft / 2,702 m 64.39° / 54.99° ASPHALT 0 ft / 0 m 0 ft / 0 m PREC-APP EDGE THRESHOLD CALVERT
24 148 ft / 45 m 8,865 ft / 2,702 m 244.43° / 235.03° ASPHALT 0 ft / 0 m 0 ft / 0 m PREC-APP EDGE THRESHOLD CALVERT

Approach Navaids

Runway Type Ident Frequency Range Bearing (true/mag) Slope Elevation
24 LOC-ILS TP 110.10 MHz 18 nm / 33 km 244.42° / 235.01 ° - 391 ft / 119 m (AMSL)
24 MM MM - - 244.43° / 235.02 ° - 390 ft / 119 m (AMSL)
24 OM OM - - 244.43° / 235.02 ° - 390 ft / 119 m (AMSL)
24 GS TP 110.10 MHz 10 nm / 19 km 244.42° / 235.01 ° 3.00° 391 ft / 119 m (AMSL)

Popular Alternatives